createdAt,value
2022-12-09T00:01:46.983Z,100780.09
2022-12-09T00:03:51.718Z,100768.03
2022-12-09T00:05:55.419Z,100779.31
2022-12-09T00:08:00.805Z,100788.00
2022-12-09T00:10:05.518Z,100779.38
2022-12-09T00:12:09.750Z,100782.88
2022-12-09T00:14:13.521Z,100788.19
2022-12-09T00:16:18.339Z,100776.13
2022-12-09T00:18:22.005Z,100781.38
2022-12-09T00:20:25.596Z,100781.47
2022-12-09T00:22:29.792Z,100777.19
2022-12-09T00:24:35.030Z,100782.44
2022-12-09T00:26:38.899Z,100777.31
2022-12-09T00:28:42.806Z,100778.19
2022-12-09T00:30:46.493Z,100773.84
2022-12-09T00:32:50.534Z,100773.84
2022-12-09T00:34:54.485Z,100764.25
2022-12-09T00:36:58.255Z,100774.69
2022-12-09T00:39:02.264Z,100774.69
2022-12-09T00:41:08.964Z,100772.03
2022-12-09T00:43:12.758Z,100767.66
2022-12-09T00:45:16.505Z,100763.34
2022-12-09T00:47:20.109Z,100762.47
2022-12-09T00:49:23.932Z,100758.97
2022-12-09T00:51:27.594Z,100762.41
2022-12-09T00:53:32.418Z,100766.69
2022-12-09T00:55:37.354Z,100760.59
2022-12-09T00:57:42.568Z,100767.44
2022-12-09T00:59:46.118Z,100769.16
2022-12-09T01:01:49.952Z,100770.91
2022-12-09T01:03:55.237Z,100772.53
2022-12-09T01:05:59.062Z,100776.03
2022-12-09T01:08:02.806Z,100774.22
2022-12-09T01:10:08.025Z,100772.44
2022-12-09T01:12:11.718Z,100771.56
2022-12-09T01:14:16.874Z,100777.75
2022-12-09T01:16:23.003Z,100772.53
2022-12-09T01:18:26.496Z,100782.06
2022-12-09T01:20:30.009Z,100780.34
2022-12-09T01:22:35.939Z,100779.53
2022-12-09T01:24:39.458Z,100777.84
2022-12-09T01:26:43.034Z,100775.31
2022-12-09T01:28:46.690Z,100768.41
2022-12-09T01:30:53.685Z,100775.41
2022-12-09T01:32:57.091Z,100773.72
2022-12-09T01:35:01.278Z,100770.25
2022-12-09T01:37:04.499Z,100772.88
2022-12-09T01:39:08.275Z,100771.19
2022-12-09T01:41:11.804Z,100765.09
2022-12-09T01:43:19.684Z,100762.47
2022-12-09T01:45:43.468Z,100757.19
2022-12-09T01:47:49.150Z,100744.94
2022-12-09T01:49:52.517Z,100749.22
2022-12-09T01:52:02.270Z,100747.47
2022-12-09T01:54:07.554Z,100752.66
2022-12-09T01:56:16.447Z,100757.03
2022-12-09T01:58:20.818Z,100754.41
2022-12-09T02:00:24.735Z,100757.03
2022-12-09T02:02:29.617Z,100757.03
2022-12-09T02:04:40.560Z,100756.13
2022-12-09T02:06:44.560Z,100759.59
2022-12-09T02:08:51.521Z,100766.53
2022-12-09T02:11:09.035Z,100769.13
2022-12-09T02:13:27.550Z,100770.84
2022-12-09T02:15:34.988Z,100770.81
2022-12-09T02:17:42.231Z,100776.91
2022-12-09T02:20:01.992Z,100783.06
2022-12-09T02:22:08.574Z,100784.06
2022-12-09T02:24:19.588Z,100778.84
2022-12-09T02:26:32.175Z,100771.88
2022-12-09T02:28:54.587Z,100772.75
2022-12-09T02:31:06.653Z,100778.72
2022-12-09T02:33:27.558Z,100774.44
2022-12-09T02:35:38.943Z,100773.59
2022-12-09T02:37:51.721Z,100772.75
2022-12-09T02:40:00.899Z,100772.84
2022-12-09T02:42:07.844Z,100776.34
2022-12-09T02:44:17.351Z,100775.44
2022-12-09T02:46:23.624Z,100772.88
2022-12-09T02:48:33.242Z,100772.94
2022-12-09T02:50:41.776Z,100774.69
2022-12-09T02:52:46.815Z,100769.53
2022-12-09T02:54:51.229Z,100764.34
2022-12-09T02:56:57.972Z,100761.75
2022-12-09T02:59:04.347Z,100759.19
2022-12-09T03:01:08.341Z,100751.41
2022-12-09T03:03:16.427Z,100753.16
2022-12-09T03:05:25.276Z,100759.25
2022-12-09T03:07:42.126Z,100755.94
2022-12-09T03:09:49.219Z,100753.41
2022-12-09T03:11:53.748Z,100749.03
2022-12-09T03:14:04.349Z,100755.94
2022-12-09T03:16:15.524Z,100754.19
2022-12-09T03:18:22.387Z,100752.53
2022-12-09T03:20:29.911Z,100752.63
2022-12-09T03:22:37.666Z,100746.59
2022-12-09T03:24:46.116Z,100746.59
2022-12-09T03:26:51.677Z,100754.41
2022-12-09T03:28:56.832Z,100751.00
2022-12-09T03:31:06.171Z,100749.34
2022-12-09T03:33:11.613Z,100739.78
2022-12-09T03:35:18.956Z,100742.41
2022-12-09T03:37:23.244Z,100737.19
2022-12-09T03:39:32.834Z,100735.50
2022-12-09T03:41:39.754Z,100744.19
2022-12-09T03:43:49.371Z,100734.69
2022-12-09T03:45:54.672Z,100730.41
2022-12-09T03:47:58.685Z,100739.13
2022-12-09T03:50:02.326Z,100734.84
2022-12-09T03:52:11.651Z,100736.66
2022-12-09T03:54:22.095Z,100727.13
2022-12-09T03:56:30.027Z,100731.50
2022-12-09T03:58:35.248Z,100729.81
2022-12-09T04:00:40.089Z,100733.25
2022-12-09T04:02:43.726Z,100714.22
2022-12-09T04:04:47.533Z,100729.00
2022-12-09T04:06:54.417Z,100725.59
2022-12-09T04:09:02.109Z,100726.50
2022-12-09T04:11:06.274Z,100723.91
2022-12-09T04:13:11.269Z,100725.66
2022-12-09T04:15:14.676Z,100725.69
2022-12-09T04:17:18.145Z,100730.91
2022-12-09T04:19:21.441Z,100720.47
2022-12-09T04:21:24.913Z,100722.19
2022-12-09T04:23:28.475Z,100713.53
2022-12-09T04:25:32.042Z,100712.66
2022-12-09T04:27:35.732Z,100717.91
2022-12-09T04:29:40.935Z,100718.78
2022-12-09T04:31:45.468Z,100717.88
2022-12-09T04:33:50.143Z,100713.56
2022-12-09T04:35:55.143Z,100722.19
2022-12-09T04:37:58.393Z,100714.47
2022-12-09T04:40:01.695Z,100715.34
2022-12-09T04:42:05.139Z,100721.44
2022-12-09T04:44:08.428Z,100712.81
2022-12-09T04:46:14.884Z,100716.34
2022-12-09T04:48:18.579Z,100714.66
2022-12-09T04:50:21.927Z,100706.91
2022-12-09T04:52:25.314Z,100710.47
2022-12-09T04:54:28.906Z,100708.75
2022-12-09T04:56:32.665Z,100715.75
2022-12-09T04:58:36.143Z,100708.03
2022-12-09T05:00:39.451Z,100709.84
2022-12-09T05:02:44.253Z,100707.22
2022-12-09T05:04:48.480Z,100716.84
2022-12-09T05:06:52.120Z,100714.25
2022-12-09T05:08:56.006Z,100715.09
2022-12-09T05:11:00.161Z,100708.19
2022-12-09T05:13:04.477Z,100712.44
2022-12-09T05:15:09.287Z,100709.84
2022-12-09T05:17:13.765Z,100710.69
2022-12-09T05:19:19.457Z,100701.16
2022-12-09T05:21:23.720Z,100701.09
2022-12-09T05:23:27.171Z,100709.78
2022-12-09T05:25:30.814Z,100708.03
2022-12-09T05:27:34.396Z,100708.03
2022-12-09T05:29:37.975Z,100710.59
2022-12-09T05:31:41.865Z,100708.88
2022-12-09T05:33:46.109Z,100708.88
2022-12-09T05:35:53.495Z,100703.66
2022-12-09T05:37:57.397Z,100702.81
2022-12-09T05:40:01.241Z,100695.06
2022-12-09T05:42:05.423Z,100702.88
2022-12-09T05:44:09.477Z,100696.81
2022-12-09T05:46:15.775Z,100707.22
2022-12-09T05:48:19.682Z,100710.75
2022-12-09T05:50:24.116Z,100706.44
2022-12-09T05:52:29.644Z,100700.38
2022-12-09T05:54:33.926Z,100703.94
2022-12-09T05:56:39.476Z,100702.25
2022-12-09T05:58:46.916Z,100704.84
2022-12-09T06:00:50.878Z,100707.47
2022-12-09T06:02:55.047Z,100702.25
2022-12-09T06:04:58.856Z,100705.72
2022-12-09T06:07:02.869Z,100703.13
2022-12-09T06:09:12.200Z,100698.88
2022-12-09T06:11:18.091Z,100699.84
2022-12-09T06:13:21.756Z,100697.22
2022-12-09T06:15:32.938Z,100700.78
2022-12-09T06:17:37.267Z,100699.91
2022-12-09T06:19:41.509Z,100700.78
2022-12-09T06:21:45.533Z,100694.69
2022-12-09T06:23:50.817Z,100699.91
2022-12-09T06:25:56.099Z,100695.59
2022-12-09T06:27:59.708Z,100702.50
2022-12-09T06:30:04.651Z,100699.91
2022-12-09T06:32:08.450Z,100701.56
2022-12-09T06:34:12.494Z,100701.59
2022-12-09T06:36:16.236Z,100699.88
2022-12-09T06:38:20.209Z,100699.00
2022-12-09T06:40:24.302Z,100698.16
2022-12-09T06:42:29.535Z,100692.97
2022-12-09T06:44:33.257Z,100699.91
2022-12-09T06:46:40.029Z,100690.41
2022-12-09T06:48:44.643Z,100699.06
2022-12-09T06:50:48.577Z,100699.06
2022-12-09T06:52:52.644Z,100695.59
2022-12-09T06:54:56.379Z,100692.13
2022-12-09T06:57:00.150Z,100692.13
2022-12-09T06:59:07.941Z,100697.34
2022-12-09T07:01:14.946Z,100685.25
2022-12-09T07:03:19.037Z,100692.16
2022-12-09T07:05:23.286Z,100688.72
2022-12-09T07:07:27.130Z,100686.13
2022-12-09T07:09:31.014Z,100681.78
2022-12-09T07:11:35.908Z,100677.59
2022-12-09T07:13:39.945Z,100688.06
2022-12-09T07:15:45.646Z,100686.38
2022-12-09T07:17:49.745Z,100685.56
2022-12-09T07:19:53.540Z,100695.09
2022-12-09T07:21:57.916Z,100688.09
2022-12-09T07:24:02.819Z,100684.53
2022-12-09T07:26:07.548Z,100677.59
2022-12-09T07:28:12.591Z,100674.94
2022-12-09T07:30:16.987Z,100672.31
2022-12-09T07:32:22.880Z,100678.38
2022-12-09T07:34:27.422Z,100681.00
2022-12-09T07:36:34.315Z,100681.03
2022-12-09T07:38:38.699Z,100676.72
2022-12-09T07:40:43.115Z,100669.78
2022-12-09T07:42:47.623Z,100668.94
2022-12-09T07:44:57.236Z,100670.66
2022-12-09T07:47:01.929Z,100677.63
2022-12-09T07:49:08.489Z,100679.34
2022-12-09T07:51:13.398Z,100678.50
2022-12-09T07:53:18.242Z,100681.09
2022-12-09T07:55:23.462Z,100675.94
2022-12-09T07:57:28.589Z,100667.28
2022-12-09T07:59:33.600Z,100669.03
2022-12-09T08:01:39.240Z,100665.63
2022-12-09T08:03:43.519Z,100663.03
2022-12-09T08:05:53.250Z,100667.34
2022-12-09T08:07:57.791Z,100658.66
2022-12-09T08:10:02.054Z,100661.25
2022-12-09T08:12:06.339Z,100664.75
2022-12-09T08:14:13.491Z,100675.19
2022-12-09T08:16:20.389Z,100669.16
2022-12-09T08:18:24.645Z,100670.00
2022-12-09T08:20:29.769Z,100671.75
2022-12-09T08:22:36.392Z,100672.66
2022-12-09T08:24:40.815Z,100662.28
2022-12-09T08:26:44.724Z,100681.38
2022-12-09T08:28:49.424Z,100685.75
2022-12-09T08:30:53.428Z,100684.06
2022-12-09T08:32:58.087Z,100684.06
2022-12-09T08:35:02.881Z,100671.94
2022-12-09T08:37:06.831Z,100679.66
2022-12-09T08:39:13.211Z,100671.81
2022-12-09T08:41:18.879Z,100673.47
2022-12-09T08:43:22.724Z,100676.91
2022-12-09T08:45:26.850Z,100670.75
2022-12-09T08:47:30.622Z,100675.91
2022-12-09T08:49:35.635Z,100676.72
2022-12-09T08:51:40.531Z,100674.94
2022-12-09T08:53:44.331Z,100677.47
2022-12-09T08:55:49.720Z,100678.31
2022-12-09T08:57:53.973Z,100673.06
2022-12-09T08:59:57.955Z,100678.25
2022-12-09T09:02:02.017Z,100676.47
2022-12-09T09:04:09.343Z,100684.28
2022-12-09T09:06:14.632Z,100673.84
2022-12-09T09:08:19.784Z,100678.13
2022-12-09T09:10:24.056Z,100676.41
2022-12-09T09:12:29.889Z,100680.66
2022-12-09T09:14:38.410Z,100673.69
2022-12-09T09:16:45.377Z,100672.81
2022-12-09T09:18:50.640Z,100674.53
2022-12-09T09:20:59.769Z,100674.44
2022-12-09T09:23:04.354Z,100661.41
2022-12-09T09:25:09.747Z,100661.34
2022-12-09T09:27:14.762Z,100670.84
2022-12-09T09:29:23.905Z,100663.00
2022-12-09T09:31:29.120Z,100661.28
2022-12-09T09:33:34.083Z,100662.06
2022-12-09T09:35:38.499Z,100667.25
2022-12-09T09:37:43.269Z,100665.47
2022-12-09T09:39:49.351Z,100666.28
2022-12-09T09:41:56.390Z,100679.28
2022-12-09T09:44:01.092Z,100671.44
2022-12-09T09:46:07.996Z,100668.81
2022-12-09T09:48:17.608Z,100673.06
2022-12-09T09:50:30.117Z,100666.97
2022-12-09T09:52:38.847Z,100678.16
2022-12-09T09:54:43.033Z,100675.53
2022-12-09T09:56:55.278Z,100676.38
2022-12-09T09:59:19.572Z,100674.59
2022-12-09T10:01:29.140Z,100680.59
2022-12-09T10:03:43.126Z,100675.31
2022-12-09T10:05:55.031Z,100684.75
2022-12-09T10:08:07.387Z,100675.16
2022-12-09T10:10:23.841Z,100678.53
2022-12-09T10:12:35.301Z,100674.03
2022-12-09T10:14:50.569Z,100674.66
2022-12-09T10:17:06.709Z,100680.53
2022-12-09T10:19:20.719Z,100674.25
2022-12-09T10:21:25.171Z,100679.28
2022-12-09T10:23:33.294Z,100677.38
2022-12-09T10:25:40.281Z,100673.78
2022-12-09T10:27:49.913Z,100678.84
2022-12-09T10:29:59.146Z,100676.06
2022-12-09T10:32:05.153Z,100676.00
2022-12-09T10:34:12.661Z,100671.53
2022-12-09T10:36:29.378Z,100673.19
2022-12-09T10:38:42.621Z,100670.50
2022-12-09T10:40:58.440Z,100664.25
2022-12-09T10:43:39.240Z,100665.09
2022-12-09T10:48:33.100Z,100661.50
2022-12-09T10:50:38.925Z,100664.94
2022-12-09T10:52:47.422Z,100660.47
2022-12-09T10:54:52.980Z,100661.31
2022-12-09T10:57:08.149Z,100654.19
2022-12-09T10:59:19.555Z,100653.19
2022-12-09T11:01:24.478Z,100649.53
2022-12-09T11:03:33.459Z,100651.00
2022-12-09T11:05:38.533Z,100648.34
2022-12-09T11:07:50.397Z,100650.97
2022-12-09T11:10:10.605Z,100654.50
2022-12-09T11:12:21.381Z,100655.25
2022-12-09T11:14:32.098Z,100649.13
2022-12-09T11:16:37.004Z,100654.28
2022-12-09T11:18:48.981Z,100649.19
2022-12-09T11:20:58.920Z,100652.69
2022-12-09T11:23:08.263Z,100654.50
2022-12-09T11:25:24.788Z,100651.06
2022-12-09T11:27:32.553Z,100654.56
2022-12-09T11:29:37.047Z,100658.13
2022-12-09T11:31:42.822Z,100650.44
2022-12-09T11:33:55.647Z,100653.13
2022-12-09T11:38:27.024Z,100650.69
2022-12-09T11:40:31.580Z,100642.06
2022-12-09T11:42:35.772Z,100643.94
2022-12-09T11:44:40.037Z,100643.09
2022-12-09T11:46:44.787Z,100637.97
2022-12-09T11:48:57.929Z,100641.47
2022-12-09T11:51:04.279Z,100647.63
2022-12-09T11:53:18.096Z,100632.84
2022-12-09T11:55:27.803Z,100633.69
2022-12-09T11:57:38.800Z,100630.25
2022-12-09T11:59:50.403Z,100627.59
2022-12-09T12:02:01.976Z,100634.47
2022-12-09T12:04:11.730Z,100630.94
2022-12-09T12:06:23.421Z,100633.50
2022-12-09T12:08:33.078Z,100639.50
2022-12-09T12:10:42.333Z,100634.22
2022-12-09T12:12:53.042Z,100634.13
2022-12-09T12:15:03.845Z,100629.69
2022-12-09T12:17:18.619Z,100635.66
2022-12-09T12:19:30.108Z,100632.97
2022-12-09T12:21:56.042Z,100627.72
2022-12-09T12:24:17.901Z,100627.59
2022-12-09T12:26:26.241Z,100621.44
2022-12-09T12:28:58.055Z,100623.91
2022-12-09T12:31:18.089Z,100612.41
2022-12-09T12:36:17.471Z,100615.66
2022-12-09T12:38:27.673Z,100613.97
2022-12-09T12:40:41.871Z,100608.75
2022-12-09T12:43:15.858Z,100616.59
2022-12-09T12:45:49.091Z,100621.81
2022-12-09T12:48:04.724Z,100614.91
2022-12-09T12:50:30.071Z,100614.03
2022-12-09T12:52:55.987Z,100605.47
2022-12-09T12:55:17.530Z,100613.34
2022-12-09T12:57:31.518Z,100602.06
2022-12-09T12:59:42.021Z,100607.41
2022-12-09T13:01:54.845Z,100607.41
2022-12-09T13:04:09.640Z,100601.31
2022-12-09T13:06:18.648Z,100605.72
2022-12-09T13:08:31.943Z,100610.09
2022-12-09T13:10:40.984Z,100603.16
2022-12-09T13:12:57.358Z,100601.44
2022-12-09T13:15:01.883Z,100607.50
2022-12-09T13:17:09.829Z,100606.66
2022-12-09T13:19:20.440Z,100600.56
2022-12-09T13:21:25.197Z,100593.63
2022-12-09T13:23:48.086Z,100586.63
2022-12-09T13:26:03.326Z,100579.66
2022-12-09T13:28:12.808Z,100574.50
2022-12-09T13:30:21.790Z,100572.72
2022-12-09T13:32:55.099Z,100567.50
2022-12-09T13:35:07.512Z,100570.13
2022-12-09T13:37:47.560Z,100568.34
2022-12-09T13:40:00.085Z,100574.44
2022-12-09T13:42:20.713Z,100570.94
2022-12-09T13:44:31.005Z,100566.56
2022-12-09T13:46:36.297Z,100572.63
2022-12-09T13:48:46.096Z,100563.94
2022-12-09T13:50:59.982Z,100562.19
2022-12-09T13:53:06.087Z,100561.28
2022-12-09T13:55:25.408Z,100559.56
2022-12-09T13:57:40.682Z,100557.84
2022-12-09T13:59:49.428Z,100564.75
2022-12-09T14:01:56.721Z,100559.56
2022-12-09T14:04:10.687Z,100558.78
2022-12-09T14:06:23.403Z,100557.91
2022-12-09T14:08:30.878Z,100563.13
2022-12-09T14:10:43.432Z,100557.97
2022-12-09T14:13:07.027Z,100553.69
2022-12-09T14:15:37.670Z,100553.72
2022-12-09T14:18:01.437Z,100557.28
2022-12-09T14:20:21.534Z,100560.78
2022-12-09T14:22:37.337Z,100556.44
2022-12-09T14:24:42.563Z,100554.69
2022-12-09T14:27:08.951Z,100564.28
2022-12-09T14:29:14.191Z,100555.66
2022-12-09T14:31:44.827Z,100560.00
2022-12-09T14:33:50.061Z,100557.38
2022-12-09T14:35:59.124Z,100556.63
2022-12-09T14:38:22.796Z,100553.22
2022-12-09T14:40:41.021Z,100559.31
2022-12-09T14:42:53.050Z,100546.31
2022-12-09T14:45:05.005Z,100547.25
2022-12-09T14:47:17.337Z,100549.09
2022-12-09T14:49:24.162Z,100556.97
2022-12-09T14:51:35.242Z,100556.09
2022-12-09T14:53:40.295Z,100554.47
2022-12-09T14:55:44.721Z,100548.47
2022-12-09T14:57:50.803Z,100559.88
2022-12-09T14:59:56.698Z,100556.44
2022-12-09T15:02:02.203Z,100554.81
2022-12-09T15:04:06.847Z,100551.44
2022-12-09T15:06:14.847Z,100552.38
2022-12-09T15:08:30.023Z,100548.09
2022-12-09T15:10:36.723Z,100543.81
2022-12-09T15:12:44.587Z,100558.63
2022-12-09T15:14:55.720Z,100554.34
2022-12-09T15:17:00.520Z,100547.44
2022-12-09T15:19:04.607Z,100544.94
2022-12-09T15:21:09.475Z,100544.13
2022-12-09T15:23:20.544Z,100542.44
2022-12-09T15:25:25.998Z,100535.56
2022-12-09T15:27:30.875Z,100537.38
2022-12-09T15:29:35.809Z,100540.06
2022-12-09T15:31:49.588Z,100542.75
2022-12-09T15:33:56.694Z,100553.22
2022-12-09T15:36:06.875Z,100542.88
2022-12-09T15:38:12.082Z,100548.13
2022-12-09T15:40:19.937Z,100548.19
2022-12-09T15:42:27.973Z,100546.50
2022-12-09T15:44:35.259Z,100550.94
2022-12-09T15:46:43.906Z,100548.44
2022-12-09T15:48:55.444Z,100551.06
2022-12-09T15:51:03.434Z,100549.44
2022-12-09T15:53:16.593Z,100549.50
2022-12-09T15:55:23.878Z,100548.81
2022-12-09T15:57:30.486Z,100550.63
2022-12-09T15:59:40.337Z,100548.94
2022-12-09T16:01:52.112Z,100549.88
2022-12-09T16:03:58.030Z,100548.19
2022-12-09T16:06:05.878Z,100550.00
2022-12-09T16:08:11.380Z,100552.69
2022-12-09T16:10:18.150Z,100544.06
2022-12-09T16:12:32.768Z,100548.47
2022-12-09T16:14:45.069Z,100545.03
2022-12-09T16:16:52.586Z,100545.97
2022-12-09T16:18:56.968Z,100541.63
2022-12-09T16:21:24.241Z,100538.19
2022-12-09T16:23:29.262Z,100536.47
2022-12-09T16:25:44.365Z,100538.28
2022-12-09T16:27:51.402Z,100540.03
2022-12-09T16:29:59.489Z,100534.84
2022-12-09T16:32:25.367Z,100541.84
2022-12-09T16:34:29.505Z,100536.63
2022-12-09T16:36:34.187Z,100540.97
2022-12-09T16:38:39.433Z,100547.84
2022-12-09T16:41:00.015Z,100545.25
2022-12-09T16:43:22.685Z,100545.25
2022-12-09T16:45:33.958Z,100538.34
2022-12-09T16:47:39.582Z,100540.97
2022-12-09T16:49:47.305Z,100540.97
2022-12-09T16:51:51.593Z,100543.56
2022-12-09T16:53:56.298Z,100541.84
2022-12-09T16:56:03.042Z,100547.06
2022-12-09T16:58:07.866Z,100538.34
2022-12-09T17:00:13.144Z,100533.19
2022-12-09T17:02:25.245Z,100541.00
2022-12-09T17:04:31.158Z,100534.91
2022-12-09T17:06:35.405Z,100537.53
2022-12-09T17:08:39.543Z,100534.06
2022-12-09T17:10:44.278Z,100534.06
2022-12-09T17:12:48.129Z,100537.53
2022-12-09T17:14:52.967Z,100539.28
2022-12-09T17:16:57.193Z,100545.34
2022-12-09T17:19:02.042Z,100545.34
2022-12-09T17:21:10.759Z,100548.81
2022-12-09T17:23:15.067Z,100547.94
2022-12-09T17:25:19.155Z,100542.72
2022-12-09T17:27:23.283Z,100544.50
2022-12-09T17:29:27.109Z,100545.38
2022-12-09T17:31:31.544Z,100544.53
2022-12-09T17:33:35.999Z,100541.94
2022-12-09T17:35:40.198Z,100545.41
2022-12-09T17:37:45.507Z,100545.47
2022-12-09T17:39:55.738Z,100539.38
2022-12-09T17:42:04.638Z,100538.50
2022-12-09T17:44:09.341Z,100544.59
2022-12-09T17:46:14.580Z,100541.19
2022-12-09T17:48:18.508Z,100546.41
2022-12-09T17:50:22.402Z,100542.88
2022-12-09T17:52:26.286Z,100547.28
2022-12-09T17:54:31.738Z,100547.19
2022-12-09T17:56:35.701Z,100557.63
2022-12-09T17:58:40.108Z,100554.13
2022-12-09T18:00:43.945Z,100551.53
2022-12-09T18:02:48.069Z,100550.63
2022-12-09T18:04:51.991Z,100555.84
2022-12-09T18:06:55.681Z,100551.53
2022-12-09T18:08:59.538Z,100554.13
2022-12-09T18:11:06.978Z,100559.34
2022-12-09T18:13:10.782Z,100554.09
2022-12-09T18:15:14.625Z,100552.34
2022-12-09T18:17:18.462Z,100550.63
2022-12-09T18:19:25.278Z,100552.34
2022-12-09T18:21:28.928Z,100555.84
2022-12-09T18:23:32.653Z,100549.75
2022-12-09T18:25:36.323Z,100557.63
2022-12-09T18:27:41.669Z,100558.50
2022-12-09T18:29:45.241Z,100559.41
2022-12-09T18:31:54.198Z,100551.66
2022-12-09T18:33:58.248Z,100560.34
2022-12-09T18:36:06.319Z,100554.25
2022-12-09T18:38:12.910Z,100559.50
2022-12-09T18:40:21.364Z,100556.09
2022-12-09T18:42:24.877Z,100560.44
2022-12-09T18:44:30.017Z,100562.25
2022-12-09T18:46:36.589Z,100560.56
2022-12-09T18:48:40.952Z,100563.19
2022-12-09T18:50:44.710Z,100557.16
2022-12-09T18:52:48.365Z,100559.81
2022-12-09T18:54:52.233Z,100558.13
2022-12-09T18:56:56.709Z,100552.13
2022-12-09T18:59:08.966Z,100546.94
2022-12-09T19:01:19.801Z,100546.06
2022-12-09T19:03:23.331Z,100544.38
2022-12-09T19:05:27.130Z,100552.25
2022-12-09T19:07:32.545Z,100549.63
2022-12-09T19:09:37.467Z,100553.09
2022-12-09T19:11:43.024Z,100554.81
2022-12-09T19:13:46.741Z,100562.56
2022-12-09T19:15:50.724Z,100562.56
2022-12-09T19:17:56.144Z,100554.72
2022-12-09T19:20:00.070Z,100556.34
2022-12-09T19:22:06.812Z,100566.72
2022-12-09T19:24:15.292Z,100562.34
2022-12-09T19:26:23.087Z,100557.88
2022-12-09T19:28:27.182Z,100554.34
2022-12-09T19:30:30.829Z,100564.72
2022-12-09T19:32:52.785Z,100565.47
2022-12-09T19:34:58.607Z,100575.78
2022-12-09T19:37:03.096Z,100566.19
2022-12-09T19:39:08.580Z,100571.25
2022-12-09T19:41:12.328Z,100570.28
2022-12-09T19:43:16.114Z,100566.72
2022-12-09T19:45:19.661Z,100571.00
2022-12-09T19:47:23.598Z,100565.72
2022-12-09T19:49:27.656Z,100558.72
2022-12-09T19:51:32.686Z,100554.34
2022-12-09T19:53:38.021Z,100556.03
2022-12-09T19:55:41.728Z,100553.38
2022-12-09T19:57:45.390Z,100552.47
2022-12-09T19:59:49.105Z,100552.47
2022-12-09T20:01:52.772Z,100554.19
2022-12-09T20:04:08.575Z,100562.03
2022-12-09T20:06:19.648Z,100559.41
2022-12-09T20:08:25.315Z,100562.06
2022-12-09T20:10:28.994Z,100553.38
2022-12-09T20:12:32.580Z,100556.03
2022-12-09T20:14:36.196Z,100548.16
2022-12-09T20:16:39.878Z,100552.44
2022-12-09T20:18:44.195Z,100552.44
2022-12-09T20:20:49.233Z,100548.91
2022-12-09T20:22:52.896Z,100547.97
2022-12-09T20:24:57.700Z,100549.69
2022-12-09T20:27:01.345Z,100547.88
2022-12-09T20:29:07.324Z,100548.75
2022-12-09T20:31:13.783Z,100549.56
2022-12-09T20:33:17.530Z,100549.50
2022-12-09T20:35:21.285Z,100550.44
2022-12-09T20:37:25.002Z,100552.13
2022-12-09T20:39:28.592Z,100549.50
2022-12-09T20:41:33.972Z,100548.66
2022-12-09T20:43:39.742Z,100546.00
2022-12-09T20:45:43.835Z,100546.00
2022-12-09T20:47:47.654Z,100544.25
2022-12-09T20:49:51.238Z,100545.97
2022-12-09T20:51:55.548Z,100545.09
2022-12-09T20:54:00.376Z,100545.94
2022-12-09T20:56:05.411Z,100550.25
2022-12-09T20:58:10.389Z,100545.03
2022-12-09T21:00:15.064Z,100547.66
2022-12-09T21:02:19.173Z,100538.09
2022-12-09T21:04:23.466Z,100536.38
2022-12-09T21:06:29.553Z,100533.78
2022-12-09T21:08:33.202Z,100543.31
2022-12-09T21:10:37.235Z,100547.66
2022-12-09T21:12:41.619Z,100545.88
2022-12-09T21:14:46.795Z,100537.94
2022-12-09T21:16:51.710Z,100537.91
2022-12-09T21:18:57.109Z,100550.09
2022-12-09T21:21:01.022Z,100550.06
2022-12-09T21:23:32.706Z,100552.63
2022-12-09T21:25:28.978Z,100546.47
2022-12-09T21:27:33.035Z,100561.22
2022-12-09T21:29:37.176Z,100562.94
2022-12-09T21:31:44.461Z,100555.03
2022-12-09T21:33:50.156Z,100551.47
2022-12-09T21:35:53.877Z,100550.50
2022-12-09T21:37:57.834Z,100550.44
2022-12-09T21:40:01.480Z,100543.38
2022-12-09T21:42:05.410Z,100543.31
2022-12-09T21:44:09.986Z,100539.84
2022-12-09T21:46:15.470Z,100545.91
2022-12-09T21:48:20.581Z,100548.53
2022-12-09T21:50:24.745Z,100546.72
2022-12-09T21:52:29.348Z,100540.56
2022-12-09T21:54:33.105Z,100541.41
2022-12-09T21:56:37.316Z,100541.41
2022-12-09T21:58:41.516Z,100541.41
2022-12-09T22:00:45.677Z,100537.91
2022-12-09T22:02:54.908Z,100542.22
2022-12-09T22:05:00.814Z,100534.41
2022-12-09T22:07:05.006Z,100532.59
2022-12-09T22:09:09.897Z,100535.16
2022-12-09T22:11:16.505Z,100530.81
2022-12-09T22:13:20.577Z,100527.31
2022-12-09T22:15:24.602Z,100529.91
2022-12-09T22:17:28.557Z,100531.59
2022-12-09T22:19:33.135Z,100535.94
2022-12-09T22:21:38.528Z,100529.78
2022-12-09T22:23:42.689Z,100535.84
2022-12-09T22:25:46.966Z,100538.44
2022-12-09T22:27:51.543Z,100525.38
2022-12-09T22:29:56.028Z,100527.03
2022-12-09T22:32:01.403Z,100526.13
2022-12-09T22:34:07.340Z,100534.78
2022-12-09T22:36:14.372Z,100533.84
2022-12-09T22:38:20.166Z,100538.13
2022-12-09T22:40:24.344Z,100522.44
2022-12-09T22:42:30.472Z,100539.81
2022-12-09T22:44:34.699Z,100535.41
2022-12-09T22:46:38.894Z,100531.03
2022-12-09T22:48:43.388Z,100542.31
2022-12-09T22:50:47.218Z,100533.59
2022-12-09T22:52:51.711Z,100534.47
2022-12-09T22:54:58.046Z,100525.81
2022-12-09T22:57:02.699Z,100540.63
2022-12-09T22:59:07.807Z,100538.06
2022-12-09T23:01:13.262Z,100530.25
2022-12-09T23:03:18.546Z,100526.84
2022-12-09T23:05:23.113Z,100525.09
2022-12-09T23:07:27.529Z,100518.13
2022-12-09T23:09:31.731Z,100522.47
2022-12-09T23:11:38.745Z,100520.78
2022-12-09T23:13:43.350Z,100519.91
2022-12-09T23:15:51.094Z,100518.31
2022-12-09T23:17:55.981Z,100516.69
2022-12-09T23:20:01.252Z,100516.78
2022-12-09T23:22:05.835Z,100511.72
2022-12-09T23:24:18.466Z,100517.94
2022-12-09T23:26:28.659Z,100512.03
2022-12-09T23:28:37.397Z,100516.47
2022-12-09T23:30:41.557Z,100514.00
2022-12-09T23:32:45.917Z,100510.59
2022-12-09T23:34:50.402Z,100508.97
2022-12-09T23:36:55.985Z,100508.19
2022-12-09T23:39:00.992Z,100503.91
2022-12-09T23:41:06.534Z,100495.34
2022-12-09T23:43:11.053Z,100496.28
2022-12-09T23:45:16.728Z,100488.53
2022-12-09T23:47:21.751Z,100488.56
2022-12-09T23:49:26.166Z,100490.38
2022-12-09T23:51:33.819Z,100488.66
2022-12-09T23:53:37.986Z,100488.75
2022-12-09T23:55:44.261Z,100484.44
2022-12-09T23:57:49.145Z,100486.25
2022-12-09T23:59:53.717Z,100486.28
